Time,TemperatureF,DewpointF,PressureIn,WindDirection,WindDirectionDegrees,WindSpeedMPH,WindSpeedGustMPH,Humidity,HourlyPrecipIn,Conditions,Clouds,dailyrainin,SoftwareType,DateUTC
2013-07-08 00:01:00,78.3,68.5,29.20,WSW,248,0.0,1.3,72,0.00,,---,0.00,VWS V14.01,2013-07-08 05:01:00,
2013-07-08 00:06:00,78.1,68.3,29.20,SSW,202,0.0,3.1,72,0.00,,---,0.00,VWS V14.01,2013-07-08 05:06:00,
2013-07-08 00:11:00,78.1,68.3,29.20,SSW,202,0.9,2.7,72,0.00,,---,0.00,VWS V14.01,2013-07-08 05:11:00,
2013-07-08 00:16:00,78.1,68.7,29.20,SSW,202,1.6,1.6,73,0.00,,---,0.00,VWS V14.01,2013-07-08 05:16:00,
2013-07-08 00:21:00,78.1,68.7,29.20,South,180,2.7,2.7,73,0.00,,---,0.00,VWS V14.01,2013-07-08 05:21:00,
2013-07-08 00:26:00,78.1,68.7,29.20,South,180,2.0,2.0,73,0.00,,---,0.00,VWS V14.01,2013-07-08 05:26:00,
2013-07-08 00:31:00,78.1,69.1,29.20,SW,225,1.6,2.7,74,0.00,,---,0.00,VWS V14.01,2013-07-08 05:31:00,
2013-07-08 00:36:00,78.1,69.1,29.20,South,180,0.0,1.3,74,0.00,,---,0.00,VWS V14.01,2013-07-08 05:36:00,
2013-07-08 00:42:00,78.1,69.1,29.23,SSW,202,1.3,1.3,74,0.00,,---,0.00,VWS V14.01,2013-07-08 05:42:00,
2013-07-08 00:47:00,78.1,69.1,29.23,SW,225,2.2,2.2,74,0.00,,---,0.00,VWS V14.01,2013-07-08 05:47:00,
2013-07-08 00:52:00,78.1,69.1,29.23,SW,225,2.5,2.5,74,0.00,,---,0.00,VWS V14.01,2013-07-08 05:52:00,
2013-07-08 00:57:00,78.1,69.1,29.20,ESE,112,0.0,0.0,74,0.00,,---,0.00,VWS V14.01,2013-07-08 05:57:00,
2013-07-08 01:02:00,78.1,69.1,29.20,South,180,0.0,1.1,74,0.00,,---,0.00,VWS V14.01,2013-07-08 06:02:00,
2013-07-08 01:07:00,78.1,69.1,29.20,SW,225,3.6,4.9,74,0.00,,---,0.00,VWS V14.01,2013-07-08 06:07:00,
2013-07-08 01:12:00,78.1,69.1,29.23,SW,225,5.4,5.4,74,0.00,,---,0.00,VWS V14.01,2013-07-08 06:12:00,
2013-07-08 01:17:00,78.1,69.1,29.23,SSW,202,1.3,4.0,74,0.00,,---,0.00,VWS V14.01,2013-07-08 06:17:00,
2013-07-08 01:22:00,78.3,69.3,29.23,SSW,202,1.1,4.0,74,0.00,,---,0.00,VWS V14.01,2013-07-08 06:22:00,
2013-07-08 01:27:00,78.3,69.3,29.20,South,180,2.0,2.0,74,0.00,,---,0.00,VWS V14.01,2013-07-08 06:27:00,
2013-07-08 01:32:00,78.1,69.1,29.20,SSE,158,1.6,3.8,74,0.00,,---,0.00,VWS V14.01,2013-07-08 06:32:00,
2013-07-08 01:37:00,78.1,69.1,29.20,SE,135,0.0,2.0,74,0.00,,---,0.00,VWS V14.01,2013-07-08 06:37:00,
2013-07-08 01:42:00,78.1,69.1,29.20,SSW,202,1.6,1.6,74,0.00,,---,0.00,VWS V14.01,2013-07-08 06:42:00,
2013-07-08 01:47:00,77.9,69.3,29.20,South,180,2.2,4.5,75,0.00,,---,0.00,VWS V14.01,2013-07-08 06:47:00,
2013-07-08 01:52:00,77.9,69.3,29.20,South,180,1.1,1.1,75,0.00,,---,0.00,VWS V14.01,2013-07-08 06:52:00,
2013-07-08 01:57:00,77.9,69.3,29.20,SSW,202,2.7,2.7,75,0.00,,---,0.00,VWS V14.01,2013-07-08 06:57:00,
2013-07-08 02:02:00,77.7,69.2,29.20,SSW,202,1.3,1.3,75,0.00,,---,0.00,VWS V14.01,2013-07-08 07:02:00,
2013-07-08 02:08:00,77.7,69.2,29.20,SSW,202,1.6,2.0,75,0.00,,---,0.00,VWS V14.01,2013-07-08 07:08:00,
2013-07-08 02:13:00,77.7,69.2,29.20,SW,225,3.4,3.4,75,0.00,,---,0.00,VWS V14.01,2013-07-08 07:13:00,
2013-07-08 02:18:00,77.5,69.4,29.20,SW,225,2.0,2.0,76,0.00,,---,0.00,VWS V14.01,2013-07-08 07:18:00,
2013-07-08 02:23:00,77.5,69.4,29.20,SSW,202,0.9,2.9,76,0.00,,---,0.00,VWS V14.01,2013-07-08 07:23:00,
2013-07-08 02:28:00,77.5,69.4,29.20,South,180,1.6,1.6,76,0.00,,---,0.00,VWS V14.01,2013-07-08 07:28:00,
2013-07-08 02:33:00,77.4,69.2,29.20,SW,225,0.0,2.0,76,0.00,,---,0.00,VWS V14.01,2013-07-08 07:33:00,
2013-07-08 02:38:00,77.2,69.0,29.20,South,180,0.0,0.0,76,0.00,,---,0.00,VWS V14.01,2013-07-08 07:38:00,
2013-07-08 02:43:00,77.2,69.0,29.20,South,180,0.0,0.0,76,0.00,,---,0.00,VWS V14.01,2013-07-08 07:43:00,
2013-07-08 02:48:00,77.2,69.0,29.20,South,180,1.3,1.3,76,0.00,,---,0.00,VWS V14.01,2013-07-08 07:48:00,
2013-07-08 02:54:00,77.0,68.9,29.20,SSW,202,4.0,4.0,76,0.00,,---,0.00,VWS V14.01,2013-07-08 07:54:00,
2013-07-08 02:59:00,77.0,68.9,29.20,South,180,0.0,0.0,76,0.00,,---,0.00,VWS V14.01,2013-07-08 07:59:00,
2013-07-08 03:04:00,77.0,69.2,29.20,SSW,202,1.6,1.6,77,0.00,,---,0.00,VWS V14.01,2013-07-08 08:04:00,
2013-07-08 03:09:00,76.8,69.1,29.20,SW,225,5.4,5.4,77,0.00,,---,0.00,VWS V14.01,2013-07-08 08:09:00,
2013-07-08 03:14:00,76.6,68.9,29.20,SE,135,1.3,1.3,77,0.00,,---,0.00,VWS V14.01,2013-07-08 08:14:00,
2013-07-08 03:19:00,76.6,69.3,29.20,South,180,2.2,2.2,78,0.00,,---,0.00,VWS V14.01,2013-07-08 08:19:00,
2013-07-08 03:24:00,76.5,69.1,29.20,South,180,1.3,2.9,78,0.00,,---,0.00,VWS V14.01,2013-07-08 08:24:00,
2013-07-08 03:29:00,76.5,69.1,29.20,South,180,2.0,2.0,78,0.00,,---,0.00,VWS V14.01,2013-07-08 08:29:00,
2013-07-08 03:34:00,76.5,69.1,29.20,SSW,202,0.0,0.0,78,0.00,,---,0.00,VWS V14.01,2013-07-08 08:34:00,
2013-07-08 03:39:00,76.3,68.9,29.20,SSE,158,0.0,0.0,78,0.00,,---,0.00,VWS V14.01,2013-07-08 08:39:00,
2013-07-08 03:44:00,76.1,68.8,29.20,SE,135,1.6,1.6,78,0.00,,---,0.00,VWS V14.01,2013-07-08 08:44:00,
2013-07-08 03:50:00,75.9,68.6,29.20,West,270,0.0,0.0,78,0.00,,---,0.00,VWS V14.01,2013-07-08 08:50:00,
2013-07-08 03:55:00,75.9,68.9,29.20,SSW,202,1.1,3.6,79,0.00,,---,0.00,VWS V14.01,2013-07-08 08:55:00,
2013-07-08 04:00:00,75.9,68.9,29.20,South,180,0.0,0.0,79,0.00,,---,0.00,VWS V14.01,2013-07-08 09:00:00,
2013-07-08 04:05:00,75.9,68.9,29.20,SSW,202,2.0,2.9,79,0.00,,---,0.00,VWS V14.01,2013-07-08 09:05:00,
2013-07-08 04:10:00,75.9,68.9,29.20,SSW,202,2.0,2.0,79,0.00,,---,0.00,VWS V14.01,2013-07-08 09:10:00,
2013-07-08 04:15:00,75.9,68.9,29.20,SSW,202,0.0,3.8,79,0.00,,---,0.00,VWS V14.01,2013-07-08 09:15:00,
2013-07-08 04:20:00,75.9,68.9,29.20,SSW,202,1.6,2.2,79,0.00,,---,0.00,VWS V14.01,2013-07-08 09:20:00,
2013-07-08 04:25:00,76.1,68.8,29.20,SW,225,2.5,3.4,78,0.00,,---,0.00,VWS V14.01,2013-07-08 09:25:00,
2013-07-08 04:30:00,75.9,68.6,29.20,SSW,202,3.6,3.6,78,0.00,,---,0.00,VWS V14.01,2013-07-08 09:30:00,
2013-07-08 04:35:00,76.1,69.1,29.20,SSW,202,2.7,2.7,79,0.00,,---,0.00,VWS V14.01,2013-07-08 09:35:00,
2013-07-08 04:40:00,76.1,68.8,29.20,SSW,202,4.3,4.3,78,0.00,,---,0.00,VWS V14.01,2013-07-08 09:40:00,
2013-07-08 04:45:00,75.9,68.9,29.20,SSE,158,2.7,4.0,79,0.00,,---,0.00,VWS V14.01,2013-07-08 09:45:00,
2013-07-08 04:50:00,75.9,68.9,29.20,South,180,0.0,0.0,79,0.00,,---,0.00,VWS V14.01,2013-07-08 09:50:00,
2013-07-08 04:56:00,75.9,68.9,29.20,SW,225,2.5,2.5,79,0.00,,---,0.00,VWS V14.01,2013-07-08 09:56:00,
2013-07-08 05:01:00,75.9,68.6,29.20,South,180,2.5,2.5,78,0.00,,---,0.00,VWS V14.01,2013-07-08 10:01:00,
2013-07-08 05:06:00,75.9,68.6,29.20,South,180,0.9,0.9,78,0.00,,---,0.00,VWS V14.01,2013-07-08 10:06:00,
2013-07-08 05:11:00,76.1,68.8,29.20,SSE,158,3.6,3.6,78,0.00,,---,0.00,VWS V14.01,2013-07-08 10:11:00,
2013-07-08 05:16:00,76.1,68.8,29.20,South,180,3.4,3.4,78,0.00,,---,0.00,VWS V14.01,2013-07-08 10:16:00,
2013-07-08 05:21:00,76.1,68.8,29.20,SW,225,1.3,2.7,78,0.00,,---,0.00,VWS V14.01,2013-07-08 10:21:00,
2013-07-08 05:26:00,76.1,68.8,29.23,West,270,2.0,3.4,78,0.00,,---,0.00,VWS V14.01,2013-07-08 10:26:00,
2013-07-08 05:31:00,76.1,68.8,29.23,SW,225,2.0,2.7,78,0.00,,---,0.00,VWS V14.01,2013-07-08 10:31:00,
2013-07-08 05:36:00,76.1,68.8,29.23,WSW,248,6.0,6.0,78,0.00,,---,0.00,VWS V14.01,2013-07-08 10:36:00,
2013-07-08 05:41:00,76.1,68.8,29.23,South,180,7.2,7.2,78,0.00,,---,0.00,VWS V14.01,2013-07-08 10:41:00,
2013-07-08 05:47:00,75.4,68.8,29.23,SW,225,2.9,2.9,80,0.00,,---,0.00,VWS V14.01,2013-07-08 10:47:00,
2013-07-08 05:52:00,74.8,69.0,29.23,WSW,248,1.6,1.6,82,0.00,,---,0.00,VWS V14.01,2013-07-08 10:52:00,
2013-07-08 05:57:00,74.7,69.2,29.23,South,180,1.1,3.6,83,0.00,,---,0.00,VWS V14.01,2013-07-08 10:57:00,
2013-07-08 06:02:00,74.5,69.3,29.23,SW,225,2.2,2.5,84,0.00,,---,0.00,VWS V14.01,2013-07-08 11:02:00,
2013-07-08 06:07:00,74.3,69.5,29.23,SW,225,0.9,0.9,85,0.00,,---,0.00,VWS V14.01,2013-07-08 11:07:00,
2013-07-08 06:12:00,74.3,69.5,29.23,SW,225,0.0,1.3,85,0.00,,---,0.00,VWS V14.01,2013-07-08 11:12:00,
2013-07-08 06:17:00,74.1,69.7,29.23,South,180,0.0,0.0,86,0.00,,---,0.00,VWS V14.01,2013-07-08 11:17:00,
2013-07-08 06:22:00,74.1,70.0,29.23,East,90,0.0,0.0,87,0.00,,---,0.00,VWS V14.01,2013-07-08 11:22:00,
2013-07-08 06:27:00,73.8,69.7,29.20,SE,135,0.0,0.0,87,0.00,,---,0.00,VWS V14.01,2013-07-08 11:27:00,
2013-07-08 06:32:00,73.8,70.0,29.20,South,180,0.0,0.0,88,0.00,,---,0.00,VWS V14.01,2013-07-08 11:32:00,
2013-07-08 06:38:00,73.6,70.1,29.20,SE,135,0.0,0.0,89,0.00,,---,0.00,VWS V14.01,2013-07-08 11:38:00,
2013-07-08 06:43:00,73.6,69.8,29.20,NNW,338,0.0,0.0,88,0.00,,---,0.00,VWS V14.01,2013-07-08 11:43:00,
2013-07-08 06:48:00,73.6,70.1,29.20,West,270,0.0,0.0,89,0.00,,---,0.00,VWS V14.01,2013-07-08 11:48:00,
2013-07-08 06:53:00,73.8,70.3,29.23,West,270,0.0,0.0,89,0.00,,---,0.00,VWS V14.01,2013-07-08 11:53:00,
2013-07-08 06:58:00,73.9,70.5,29.23,West,270,0.0,0.0,89,0.00,,---,0.00,VWS V14.01,2013-07-08 11:58:00,
2013-07-08 07:03:00,73.9,70.5,29.23,NNW,338,0.0,0.0,89,0.04,,---,0.04,VWS V14.01,2013-07-08 12:03:00,
2013-07-08 07:08:00,73.9,70.5,29.23,West,270,0.0,0.0,89,0.04,,---,0.04,VWS V14.01,2013-07-08 12:08:00,
2013-07-08 07:13:00,73.9,70.5,29.23,SE,135,0.0,0.0,89,0.04,,---,0.04,VWS V14.01,2013-07-08 12:13:00,
2013-07-08 07:18:00,73.8,70.3,29.23,SE,135,0.0,0.0,89,0.04,,---,0.04,VWS V14.01,2013-07-08 12:18:00,
2013-07-08 07:23:00,73.8,70.3,29.23,SSE,158,0.0,0.0,89,0.04,,---,0.04,VWS V14.01,2013-07-08 12:23:00,
2013-07-08 07:28:00,73.6,70.5,29.23,ESE,112,0.0,0.0,90,0.04,,---,0.04,VWS V14.01,2013-07-08 12:28:00,
2013-07-08 07:33:00,73.6,70.5,29.23,ENE,68,0.0,0.0,90,0.04,,---,0.04,VWS V14.01,2013-07-08 12:33:00,
2013-07-08 07:38:00,73.6,70.5,29.23,NE,45,0.0,0.0,90,0.04,,---,0.04,VWS V14.01,2013-07-08 12:38:00,
2013-07-08 07:43:00,73.6,70.5,29.23,NE,45,0.0,0.0,90,0.04,,---,0.04,VWS V14.01,2013-07-08 12:43:00,
2013-07-08 07:48:00,73.4,70.3,29.23,WSW,248,0.0,0.0,90,0.04,,---,0.04,VWS V14.01,2013-07-08 12:48:00,
2013-07-08 07:54:00,73.4,70.3,29.26,SW,225,0.0,0.0,90,0.04,,---,0.04,VWS V14.01,2013-07-08 12:54:00,
2013-07-08 07:59:00,73.4,70.3,29.26,SSW,202,0.9,2.5,90,0.04,,---,0.04,VWS V14.01,2013-07-08 12:59:00,
2013-07-08 08:04:00,73.4,70.3,29.26,East,90,2.0,2.0,90,0.04,,---,0.08,VWS V14.01,2013-07-08 13:04:00,
2013-07-08 08:09:00,73.4,70.6,29.26,SW,225,0.0,0.0,91,0.04,,---,0.08,VWS V14.01,2013-07-08 13:09:00,
2013-07-08 08:14:00,73.4,70.6,29.26,East,90,0.0,0.0,91,0.09,,---,0.13,VWS V14.01,2013-07-08 13:14:00,
2013-07-08 08:19:00,73.2,70.4,29.26,NW,315,0.0,0.0,91,0.09,,---,0.13,VWS V14.01,2013-07-08 13:19:00,
2013-07-08 08:24:00,73.2,70.4,29.26,NW,315,0.0,0.0,91,0.09,,---,0.13,VWS V14.01,2013-07-08 13:24:00,
2013-07-08 08:29:00,73.2,70.4,29.26,NW,315,0.0,0.0,91,0.09,,---,0.13,VWS V14.01,2013-07-08 13:29:00,
2013-07-08 08:34:00,73.2,70.4,29.26,ESE,112,1.6,1.6,91,0.09,,---,0.13,VWS V14.01,2013-07-08 13:34:00,
2013-07-08 08:39:00,73.4,70.6,29.26,SSE,158,0.0,0.0,91,0.09,,---,0.13,VWS V14.01,2013-07-08 13:39:00,
2013-07-08 08:45:00,73.4,70.6,29.26,East,90,0.0,0.0,91,0.09,,---,0.13,VWS V14.01,2013-07-08 13:45:00,
2013-07-08 08:50:00,73.4,70.6,29.26,ESE,112,0.0,0.0,91,0.09,,---,0.13,VWS V14.01,2013-07-08 13:50:00,
2013-07-08 08:55:00,73.2,70.4,29.26,SE,135,0.0,0.9,91,0.09,,---,0.13,VWS V14.01,2013-07-08 13:55:00,
2013-07-08 09:00:00,73.4,70.6,29.26,ESE,112,0.0,0.0,91,0.09,,---,0.13,VWS V14.01,2013-07-08 14:00:00,
2013-07-08 09:05:00,73.6,70.8,29.26,SSE,158,0.0,1.3,91,0.05,,---,0.13,VWS V14.01,2013-07-08 14:05:00,
2013-07-08 09:10:00,73.6,70.5,29.26,SSW,202,0.9,0.9,90,0.05,,---,0.13,VWS V14.01,2013-07-08 14:10:00,
2013-07-08 09:15:00,73.8,70.7,29.26,SSW,202,1.6,1.6,90,0.00,,---,0.13,VWS V14.01,2013-07-08 14:15:00,
2013-07-08 09:20:00,73.6,70.5,29.26,SSW,202,1.3,1.6,90,0.00,,---,0.13,VWS V14.01,2013-07-08 14:20:00,
2013-07-08 09:25:00,73.8,70.7,29.26,SSW,202,2.7,2.7,90,0.00,,---,0.13,VWS V14.01,2013-07-08 14:25:00,
2013-07-08 09:30:00,73.9,70.8,29.26,SSE,158,1.6,1.6,90,0.00,,---,0.13,VWS V14.01,2013-07-08 14:30:00,
2013-07-08 09:36:00,73.9,70.8,29.26,SSE,158,2.0,2.0,90,0.00,,---,0.13,VWS V14.01,2013-07-08 14:36:00,
2013-07-08 09:41:00,73.9,71.2,29.26,SSE,158,0.0,0.0,91,0.03,,---,0.16,VWS V14.01,2013-07-08 14:41:00,
2013-07-08 09:46:00,73.9,70.8,29.26,SE,135,0.9,1.3,90,0.08,,---,0.21,VWS V14.01,2013-07-08 14:46:00,
2013-07-08 09:51:00,73.9,70.8,29.26,South,180,2.9,2.9,90,0.08,,---,0.21,VWS V14.01,2013-07-08 14:51:00,
2013-07-08 09:56:00,73.9,71.2,29.26,SSW,202,0.0,2.5,91,0.08,,---,0.21,VWS V14.01,2013-07-08 14:56:00,
2013-07-08 10:01:00,73.9,71.2,29.26,SSW,202,2.9,2.9,91,0.08,,---,0.21,VWS V14.01,2013-07-08 15:01:00,
2013-07-08 10:06:00,74.1,71.3,29.26,South,180,2.9,4.0,91,0.08,,---,0.21,VWS V14.01,2013-07-08 15:06:00,
2013-07-08 10:11:00,74.3,71.5,29.26,South,180,2.9,2.9,91,0.08,,---,0.21,VWS V14.01,2013-07-08 15:11:00,
2013-07-08 10:16:00,74.3,71.5,29.26,SSW,202,1.6,2.2,91,0.08,,---,0.21,VWS V14.01,2013-07-08 15:16:00,
2013-07-08 10:21:00,74.3,71.5,29.26,South,180,2.9,2.9,91,0.08,,---,0.21,VWS V14.01,2013-07-08 15:21:00,
2013-07-08 10:26:00,74.5,71.7,29.26,SW,225,2.5,2.5,91,0.08,,---,0.21,VWS V14.01,2013-07-08 15:26:00,
2013-07-08 10:31:00,74.5,71.7,29.26,South,180,4.0,4.0,91,0.08,,---,0.21,VWS V14.01,2013-07-08 15:31:00,
2013-07-08 10:37:00,74.5,71.7,29.26,SSW,202,3.8,3.8,91,0.08,,---,0.21,VWS V14.01,2013-07-08 15:37:00,
2013-07-08 10:42:00,74.3,71.2,29.23,WSW,248,2.9,2.9,90,0.05,,---,0.21,VWS V14.01,2013-07-08 15:42:00,
2013-07-08 10:47:00,74.3,71.2,29.23,SSW,202,6.0,6.0,90,0.00,,---,0.21,VWS V14.01,2013-07-08 15:47:00,
2013-07-08 10:52:00,74.3,71.2,29.23,SSW,202,2.7,2.7,90,0.00,,---,0.21,VWS V14.01,2013-07-08 15:52:00,
2013-07-08 10:57:00,74.5,71.4,29.23,SSE,158,3.6,3.6,90,0.00,,---,0.21,VWS V14.01,2013-07-08 15:57:00,
2013-07-08 11:02:00,74.8,71.7,29.23,SSW,202,3.6,3.6,90,0.00,,---,0.21,VWS V14.01,2013-07-08 16:02:00,
2013-07-08 11:07:00,75.4,72.2,29.23,SW,225,5.8,5.8,90,0.00,,---,0.21,VWS V14.01,2013-07-08 16:07:00,
2013-07-08 11:12:00,75.9,72.8,29.23,SW,225,2.9,2.9,90,0.00,,---,0.21,VWS V14.01,2013-07-08 16:12:00,
2013-07-08 11:17:00,76.1,73.0,29.23,SSW,202,5.6,5.6,90,0.00,,---,0.21,VWS V14.01,2013-07-08 16:17:00,
2013-07-08 11:22:00,76.5,73.3,29.23,SSW,202,4.0,5.8,90,0.00,,---,0.21,VWS V14.01,2013-07-08 16:22:00,
2013-07-08 11:27:00,77.0,73.8,29.23,South,180,4.3,4.3,90,0.00,,---,0.21,VWS V14.01,2013-07-08 16:27:00,
2013-07-08 11:32:00,77.4,73.9,29.23,SSW,202,1.6,1.6,89,0.00,,---,0.21,VWS V14.01,2013-07-08 16:32:00,
2013-07-08 11:38:00,77.7,74.2,29.23,SSW,202,4.9,6.3,89,0.00,,---,0.21,VWS V14.01,2013-07-08 16:38:00,
2013-07-08 11:43:00,78.3,74.8,29.23,SSE,158,0.0,3.8,89,0.00,,---,0.21,VWS V14.01,2013-07-08 16:43:00,
2013-07-08 11:48:00,78.6,74.8,29.23,SSW,202,5.6,5.6,88,0.00,,---,0.21,VWS V14.01,2013-07-08 16:48:00,
2013-07-08 11:53:00,79.2,75.0,29.23,SSW,202,4.9,4.9,87,0.00,,---,0.21,VWS V14.01,2013-07-08 16:53:00,
2013-07-08 11:58:00,79.7,75.5,29.23,SW,225,6.3,6.3,87,0.00,,---,0.21,VWS V14.01,2013-07-08 16:58:00,
2013-07-08 12:03:00,79.9,75.7,29.23,SSW,202,5.6,5.6,87,0.00,,---,0.21,VWS V14.01,2013-07-08 17:03:00,
2013-07-08 12:08:00,80.4,76.2,29.23,SW,225,3.8,5.4,87,0.00,,---,0.21,VWS V14.01,2013-07-08 17:08:00,
2013-07-08 12:13:00,81.0,76.4,29.23,SSW,202,6.0,6.5,86,0.00,,---,0.21,VWS V14.01,2013-07-08 17:13:00,
2013-07-08 12:18:00,81.3,76.4,29.23,WSW,248,2.5,4.0,85,0.00,,---,0.21,VWS V14.01,2013-07-08 17:18:00,
2013-07-08 12:23:00,81.3,76.4,29.20,SW,225,4.0,9.6,85,0.00,,---,0.21,VWS V14.01,2013-07-08 17:23:00,
2013-07-08 12:28:00,82.4,77.1,29.20,South,180,4.0,4.0,84,0.00,,---,0.21,VWS V14.01,2013-07-08 17:28:00,
2013-07-08 12:33:00,82.8,77.1,29.20,South,180,10.7,10.7,83,0.00,,---,0.21,VWS V14.01,2013-07-08 17:33:00,
2013-07-08 12:38:00,82.8,76.7,29.20,SW,225,6.0,6.3,82,0.00,,---,0.21,VWS V14.01,2013-07-08 17:38:00,
2013-07-08 12:44:00,83.3,76.9,29.20,SSW,202,4.3,4.3,81,0.00,,---,0.21,VWS V14.01,2013-07-08 17:44:00,
2013-07-08 12:49:00,83.3,76.9,29.20,SSW,202,9.6,9.6,81,0.00,,---,0.21,VWS V14.01,2013-07-08 17:49:00,
2013-07-08 12:54:00,82.8,75.6,29.20,SW,225,5.4,5.4,79,0.00,,---,0.21,VWS V14.01,2013-07-08 17:54:00,
2013-07-08 12:59:00,82.9,76.1,29.20,SW,225,8.1,8.1,80,0.00,,---,0.21,VWS V14.01,2013-07-08 17:59:00,
2013-07-08 13:04:00,83.5,76.3,29.20,SSW,202,7.4,7.4,79,0.00,,---,0.21,VWS V14.01,2013-07-08 18:04:00,
2013-07-08 13:09:00,83.5,75.9,29.20,SSW,202,4.3,5.4,78,0.00,,---,0.21,VWS V14.01,2013-07-08 18:09:00,
2013-07-08 13:14:00,83.8,76.2,29.20,South,180,7.6,7.6,78,0.00,,---,0.21,VWS V14.01,2013-07-08 18:14:00,
2013-07-08 13:19:00,83.7,75.7,29.20,SW,225,5.4,5.4,77,0.00,,---,0.21,VWS V14.01,2013-07-08 18:19:00,
2013-07-08 13:25:00,83.7,75.7,29.20,South,180,10.3,10.3,77,0.00,,---,0.21,VWS V14.01,2013-07-08 18:25:00,
2013-07-08 13:30:00,83.5,75.5,29.20,South,180,6.5,7.8,77,0.00,,---,0.21,VWS V14.01,2013-07-08 18:30:00,
2013-07-08 13:35:00,83.5,75.1,29.20,SW,225,5.8,5.8,76,0.00,,---,0.21,VWS V14.01,2013-07-08 18:35:00,
2013-07-08 13:40:00,83.5,75.1,29.20,SSW,202,2.9,8.5,76,0.00,,---,0.21,VWS V14.01,2013-07-08 18:40:00,
2013-07-08 13:45:00,83.7,75.3,29.20,SW,225,6.3,6.3,76,0.00,,---,0.21,VWS V14.01,2013-07-08 18:45:00,
2013-07-08 13:51:00,84.0,75.6,29.20,South,180,6.5,7.4,76,0.00,,---,0.21,VWS V14.01,2013-07-08 18:51:00,
2013-07-08 13:56:00,85.1,76.7,29.20,SSW,202,6.0,6.0,76,0.00,,---,0.21,VWS V14.01,2013-07-08 18:56:00,
2013-07-08 14:01:00,86.0,77.2,29.20,WSW,248,3.8,4.9,75,0.00,,---,0.21,VWS V14.01,2013-07-08 19:01:00,
2013-07-08 14:06:00,86.7,77.8,29.20,SW,225,4.0,4.0,75,0.00,,---,0.21,VWS V14.01,2013-07-08 19:06:00,
2013-07-08 14:12:00,85.8,75.3,29.20,SW,225,4.9,4.9,71,0.00,,---,0.21,VWS V14.01,2013-07-08 19:12:00,
2013-07-08 14:17:00,85.6,75.2,29.20,SW,225,7.6,7.6,71,0.00,,---,0.21,VWS V14.01,2013-07-08 19:17:00,
2013-07-08 14:22:00,85.5,74.6,29.20,SW,225,9.8,9.8,70,0.00,,---,0.21,VWS V14.01,2013-07-08 19:22:00,
2013-07-08 14:27:00,85.8,74.9,29.20,SW,225,2.9,6.0,70,0.00,,---,0.21,VWS V14.01,2013-07-08 19:27:00,
2013-07-08 14:32:00,86.2,75.2,29.20,SW,225,7.8,7.8,70,0.00,,---,0.21,VWS V14.01,2013-07-08 19:32:00,
2013-07-08 14:37:00,86.2,74.4,29.20,SSW,202,6.3,6.3,68,0.00,,---,0.21,VWS V14.01,2013-07-08 19:37:00,
2013-07-08 14:43:00,86.2,74.4,29.20,SSW,202,3.1,8.7,68,0.00,,---,0.21,VWS V14.01,2013-07-08 19:43:00,
2013-07-08 14:48:00,86.0,73.8,29.20,SSW,202,5.8,9.8,67,0.00,,---,0.21,VWS V14.01,2013-07-08 19:48:00,
2013-07-08 14:53:00,85.6,73.9,29.20,SW,225,5.8,8.1,68,0.00,,---,0.21,VWS V14.01,2013-07-08 19:53:00,
2013-07-08 14:58:00,85.6,74.3,29.20,SSW,202,3.6,3.6,69,0.00,,---,0.21,VWS V14.01,2013-07-08 19:58:00,
2013-07-08 15:03:00,85.5,73.7,29.20,WSW,248,7.2,7.2,68,0.00,,---,0.21,VWS V14.01,2013-07-08 20:03:00,
2013-07-08 15:08:00,85.5,73.7,29.20,SSW,202,6.0,6.0,68,0.00,,---,0.21,VWS V14.01,2013-07-08 20:08:00,
2013-07-08 15:13:00,84.9,73.2,29.20,SSW,202,8.1,8.7,68,0.00,,---,0.21,VWS V14.01,2013-07-08 20:13:00,
2013-07-08 15:19:00,84.6,72.8,29.20,WSW,248,2.7,2.7,68,0.00,,---,0.21,VWS V14.01,2013-07-08 20:19:00,
2013-07-08 15:24:00,84.0,72.3,29.20,NW,315,3.4,7.6,68,0.00,,---,0.21,VWS V14.01,2013-07-08 20:24:00,
2013-07-08 15:29:00,83.5,73.5,29.20,SW,225,2.7,7.2,72,0.00,,---,0.21,VWS V14.01,2013-07-08 20:29:00,
2013-07-08 15:34:00,82.4,74.1,29.20,SSW,202,7.6,7.6,76,0.00,,---,0.21,VWS V14.01,2013-07-08 20:34:00,
2013-07-08 15:39:00,82.0,74.1,29.20,SW,225,4.9,8.5,77,0.00,,---,0.21,VWS V14.01,2013-07-08 20:39:00,
2013-07-08 15:44:00,81.9,73.9,29.20,SSW,202,4.7,5.6,77,0.00,,---,0.21,VWS V14.01,2013-07-08 20:44:00,
2013-07-08 15:49:00,81.9,74.3,29.20,SSW,202,4.3,4.3,78,0.00,,---,0.21,VWS V14.01,2013-07-08 20:49:00,
2013-07-08 15:54:00,81.7,73.8,29.20,WNW,292,2.5,2.9,77,0.00,,---,0.21,VWS V14.01,2013-07-08 20:54:00,
2013-07-08 16:00:00,81.9,73.6,29.20,SW,225,4.0,6.3,76,0.00,,---,0.21,VWS V14.01,2013-07-08 21:00:00,
2013-07-08 16:05:00,81.9,73.6,29.20,SSW,202,2.0,3.1,76,0.00,,---,0.21,VWS V14.01,2013-07-08 21:05:00,
2013-07-08 16:10:00,81.9,73.2,29.20,South,180,8.1,8.1,75,0.00,,---,0.21,VWS V14.01,2013-07-08 21:10:00,
2013-07-08 16:15:00,82.2,73.5,29.20,South,180,5.4,5.4,75,0.00,,---,0.21,VWS V14.01,2013-07-08 21:15:00,
2013-07-08 16:21:00,82.6,73.9,29.20,SSW,202,6.5,6.5,75,0.00,,---,0.21,VWS V14.01,2013-07-08 21:21:00,
2013-07-08 16:26:00,82.9,74.2,29.20,West,270,6.0,7.8,75,0.00,,---,0.21,VWS V14.01,2013-07-08 21:26:00,
2013-07-08 16:32:00,83.3,74.6,29.20,SSW,202,5.6,5.6,75,0.00,,---,0.21,VWS V14.01,2013-07-08 21:32:00,
2013-07-08 16:37:00,83.5,74.7,29.20,South,180,2.5,2.5,75,0.00,,---,0.21,VWS V14.01,2013-07-08 21:37:00,
2013-07-08 16:42:00,83.7,74.9,29.20,SW,225,1.1,3.1,75,0.00,,---,0.21,VWS V14.01,2013-07-08 21:42:00,
2013-07-08 16:47:00,83.8,75.5,29.20,WSW,248,2.5,2.5,76,0.00,,---,0.21,VWS V14.01,2013-07-08 21:47:00,
2013-07-08 16:52:00,84.0,75.6,29.20,West,270,6.3,6.3,76,0.00,,---,0.21,VWS V14.01,2013-07-08 21:52:00,
2013-07-08 16:57:00,84.2,75.8,29.20,West,270,5.4,5.4,76,0.00,,---,0.21,VWS V14.01,2013-07-08 21:57:00,
2013-07-08 17:03:00,84.7,76.3,29.20,SW,225,7.4,7.4,76,0.00,,---,0.21,VWS V14.01,2013-07-08 22:03:00,
2013-07-08 17:09:00,85.1,76.7,29.20,WSW,248,4.0,5.8,76,0.00,,---,0.21,VWS V14.01,2013-07-08 22:09:00,
2013-07-08 17:14:00,85.5,77.0,29.20,WSW,248,6.0,7.8,76,0.00,,---,0.21,VWS V14.01,2013-07-08 22:14:00,
2013-07-08 17:19:00,85.5,76.6,29.20,SSW,202,7.2,7.2,75,0.00,,---,0.21,VWS V14.01,2013-07-08 22:19:00,
2013-07-08 17:25:00,85.8,77.4,29.20,SW,225,8.5,9.8,76,0.00,,---,0.21,VWS V14.01,2013-07-08 22:25:00,
2013-07-08 17:30:00,86.0,77.2,29.20,SW,225,7.8,7.8,75,0.00,,---,0.21,VWS V14.01,2013-07-08 22:30:00,
2013-07-08 17:35:00,86.0,77.2,29.20,SW,225,5.4,5.4,75,0.00,,---,0.21,VWS V14.01,2013-07-08 22:35:00,
2013-07-08 17:40:00,86.0,77.2,29.20,WSW,248,5.8,5.8,75,0.00,,---,0.21,VWS V14.01,2013-07-08 22:40:00,
2013-07-08 17:46:00,85.8,77.0,29.20,WNW,292,3.4,3.4,75,0.00,,---,0.21,VWS V14.01,2013-07-08 22:46:00,
2013-07-08 17:52:00,85.3,76.1,29.20,SW,225,5.6,7.2,74,0.00,,---,0.21,VWS V14.01,2013-07-08 22:52:00,
2013-07-08 17:57:00,84.9,75.7,29.20,SW,225,5.4,5.4,74,0.00,,---,0.21,VWS V14.01,2013-07-08 22:57:00,
2013-07-08 18:02:00,84.7,75.5,29.20,SW,225,4.0,4.0,74,0.00,,---,0.21,VWS V14.01,2013-07-08 23:02:00,
2013-07-08 18:07:00,84.6,75.4,29.20,SW,225,2.0,2.0,74,0.00,,---,0.21,VWS V14.01,2013-07-08 23:07:00,
2013-07-08 18:13:00,84.4,75.2,29.17,WNW,292,3.1,5.6,74,0.00,,---,0.21,VWS V14.01,2013-07-08 23:13:00,
2013-07-08 18:18:00,84.2,75.0,29.17,SW,225,2.7,2.7,74,0.00,,---,0.21,VWS V14.01,2013-07-08 23:18:00,
2013-07-08 18:23:00,84.2,75.0,29.20,West,270,2.0,2.0,74,0.00,,---,0.21,VWS V14.01,2013-07-08 23:23:00,
2013-07-08 18:28:00,84.0,74.8,29.20,SW,225,2.9,2.9,74,0.00,,---,0.21,VWS V14.01,2013-07-08 23:28:00,
2013-07-08 18:34:00,84.0,75.2,29.20,SW,225,3.1,3.1,75,0.00,,---,0.21,VWS V14.01,2013-07-08 23:34:00,
2013-07-08 18:39:00,83.8,75.1,29.20,SW,225,7.8,7.8,75,0.00,,---,0.21,VWS V14.01,2013-07-08 23:39:00,
2013-07-08 18:45:00,83.7,74.9,29.20,SSW,202,4.9,4.9,75,0.00,,---,0.21,VWS V14.01,2013-07-08 23:45:00,
2013-07-08 18:50:00,83.7,74.9,29.20,SSW,202,4.3,4.3,75,0.00,,---,0.21,VWS V14.01,2013-07-08 23:50:00,
2013-07-08 18:55:00,83.7,75.3,29.17,SW,225,4.9,4.9,76,0.00,,---,0.21,VWS V14.01,2013-07-08 23:55:00,
2013-07-08 19:01:00,83.7,75.3,29.17,West,270,5.4,5.4,76,0.00,,---,0.21,VWS V14.01,2013-07-09 00:01:00,
2013-07-08 19:06:00,83.8,75.5,29.17,West,270,3.6,3.6,76,0.00,,---,0.21,VWS V14.01,2013-07-09 00:06:00,
2013-07-08 19:12:00,83.7,75.3,29.20,SSW,202,3.1,3.1,76,0.00,,---,0.21,VWS V14.01,2013-07-09 00:12:00,
2013-07-08 19:17:00,83.7,75.3,29.20,SSW,202,6.3,6.3,76,0.00,,---,0.21,VWS V14.01,2013-07-09 00:17:00,
2013-07-08 19:22:00,83.7,75.3,29.20,SSW,202,3.1,3.8,76,0.00,,---,0.21,VWS V14.01,2013-07-09 00:22:00,
2013-07-08 19:27:00,83.5,75.1,29.20,SSW,202,2.5,2.5,76,0.00,,---,0.21,VWS V14.01,2013-07-09 00:27:00,
2013-07-08 19:32:00,83.3,75.3,29.20,SW,225,4.3,4.3,77,0.00,,---,0.21,VWS V14.01,2013-07-09 00:32:00,
2013-07-08 19:37:00,83.1,75.2,29.20,SSW,202,4.0,4.0,77,0.00,,---,0.21,VWS V14.01,2013-07-09 00:37:00,
2013-07-08 19:43:00,82.9,75.0,29.20,SSW,202,4.0,4.0,77,0.00,,---,0.21,VWS V14.01,2013-07-09 00:43:00,
2013-07-08 19:48:00,82.9,75.0,29.20,SSW,202,0.0,0.0,77,0.00,,---,0.21,VWS V14.01,2013-07-09 00:48:00,
2013-07-08 19:53:00,82.8,75.2,29.20,SW,225,3.4,3.4,78,0.00,,---,0.21,VWS V14.01,2013-07-09 00:53:00,
2013-07-08 19:58:00,82.6,75.0,29.20,SSE,158,2.5,2.5,78,0.00,,---,0.21,VWS V14.01,2013-07-09 00:58:00,
2013-07-08 20:03:00,82.4,74.9,29.20,SSW,202,2.7,2.7,78,0.00,,---,0.21,VWS V14.01,2013-07-09 01:03:00,
2013-07-08 20:08:00,82.2,75.1,29.20,SW,225,0.0,0.0,79,0.00,,---,0.21,VWS V14.01,2013-07-09 01:08:00,
2013-07-08 20:14:00,82.0,74.9,29.20,SSW,202,0.0,0.0,79,0.00,,---,0.21,VWS V14.01,2013-07-09 01:14:00,
2013-07-08 20:19:00,81.9,74.7,29.20,SW,225,0.9,1.6,79,0.00,,---,0.21,VWS V14.01,2013-07-09 01:19:00,
2013-07-08 20:24:00,81.7,74.5,29.20,SSW,202,1.3,1.3,79,0.00,,---,0.21,VWS V14.01,2013-07-09 01:24:00,
2013-07-08 20:30:00,81.5,74.4,29.20,South,180,1.6,1.6,79,0.00,,---,0.21,VWS V14.01,2013-07-09 01:30:00,
2013-07-08 20:35:00,81.3,74.6,29.20,South,180,0.0,0.0,80,0.00,,---,0.21,VWS V14.01,2013-07-09 01:35:00,
2013-07-08 20:40:00,81.1,74.4,29.20,SSW,202,0.0,2.0,80,0.00,,---,0.21,VWS V14.01,2013-07-09 01:40:00,
2013-07-08 20:45:00,81.0,74.2,29.20,South,180,0.0,0.0,80,0.00,,---,0.21,VWS V14.01,2013-07-09 01:45:00,
2013-07-08 20:50:00,80.8,74.0,29.20,South,180,0.0,0.0,80,0.00,,---,0.21,VWS V14.01,2013-07-09 01:50:00,
2013-07-08 20:55:00,80.6,73.9,29.20,South,180,0.0,0.0,80,0.00,,---,0.21,VWS V14.01,2013-07-09 01:55:00,
2013-07-08 21:00:00,80.4,74.1,29.20,South,180,0.0,0.0,81,0.00,,---,0.21,VWS V14.01,2013-07-09 02:00:00,
2013-07-08 21:06:00,80.2,73.9,29.20,South,180,0.0,0.0,81,0.00,,---,0.21,VWS V14.01,2013-07-09 02:06:00,
2013-07-08 21:11:00,80.1,74.1,29.20,South,180,0.0,0.0,82,0.00,,---,0.21,VWS V14.01,2013-07-09 02:11:00,
2013-07-08 21:16:00,80.1,74.1,29.20,South,180,0.0,0.0,82,0.00,,---,0.21,VWS V14.01,2013-07-09 02:16:00,
2013-07-08 21:21:00,79.7,73.7,29.20,South,180,0.0,0.0,82,0.00,,---,0.21,VWS V14.01,2013-07-09 02:21:00,
2013-07-08 21:26:00,79.5,73.9,29.20,South,180,0.0,0.0,83,0.00,,---,0.21,VWS V14.01,2013-07-09 02:26:00,
2013-07-08 21:32:00,79.3,74.1,29.20,South,180,0.0,0.0,84,0.00,,---,0.21,VWS V14.01,2013-07-09 02:32:00,
2013-07-08 21:37:00,79.0,73.7,29.20,South,180,0.0,0.0,84,0.00,,---,0.21,VWS V14.01,2013-07-09 02:37:00,
2013-07-08 21:42:00,78.8,73.6,29.20,South,180,0.0,0.0,84,0.00,,---,0.21,VWS V14.01,2013-07-09 02:42:00,
2013-07-08 21:48:00,78.8,73.6,29.20,South,180,0.0,0.0,84,0.00,,---,0.21,VWS V14.01,2013-07-09 02:48:00,
2013-07-08 21:53:00,78.6,73.7,29.20,South,180,0.0,0.0,85,0.00,,---,0.21,VWS V14.01,2013-07-09 02:53:00,
2013-07-08 21:59:00,78.4,73.6,29.20,South,180,0.0,0.0,85,0.00,,---,0.21,VWS V14.01,2013-07-09 02:59:00,
2013-07-08 22:05:00,78.3,73.7,29.20,South,180,0.0,0.0,86,0.00,,---,0.21,VWS V14.01,2013-07-09 03:05:00,
2013-07-08 22:10:00,78.1,73.6,29.20,South,180,0.0,0.0,86,0.00,,---,0.21,VWS V14.01,2013-07-09 03:10:00,
2013-07-08 22:15:00,77.9,73.7,29.20,South,180,0.0,0.0,87,0.00,,---,0.21,VWS V14.01,2013-07-09 03:15:00,
2013-07-08 22:21:00,77.7,73.6,29.20,South,180,0.0,0.0,87,0.00,,---,0.21,VWS V14.01,2013-07-09 03:21:00,
2013-07-08 22:26:00,77.5,73.4,29.20,South,180,0.0,0.0,87,0.00,,---,0.21,VWS V14.01,2013-07-09 03:26:00,
2013-07-08 22:31:00,77.5,73.4,29.20,South,180,0.0,0.0,87,0.00,,---,0.21,VWS V14.01,2013-07-09 03:31:00,
2013-07-08 22:36:00,77.4,73.5,29.20,South,180,0.0,0.0,88,0.00,,---,0.21,VWS V14.01,2013-07-09 03:36:00,
2013-07-08 22:42:00,77.4,73.5,29.20,South,180,0.0,0.0,88,0.00,,---,0.21,VWS V14.01,2013-07-09 03:42:00,
2013-07-08 22:48:00,77.2,73.3,29.20,South,180,0.0,0.0,88,0.00,,---,0.21,VWS V14.01,2013-07-09 03:48:00,
2013-07-08 22:53:00,77.2,73.3,29.20,South,180,0.0,0.0,88,0.00,,---,0.21,VWS V14.01,2013-07-09 03:53:00,
2013-07-08 22:58:00,77.0,73.2,29.20,South,180,0.0,0.0,88,0.00,,---,0.21,VWS V14.01,2013-07-09 03:58:00,
2013-07-08 23:01:00,76.8,73.3,29.20,South,180,0.0,0.0,89,0.00,,---,0.21,VWS V14.01,2013-07-09 04:01:00,
2013-07-08 23:02:00,76.8,73.3,29.20,ESE,112,0.0,0.0,89,0.00,,---,0.21,VWS V14.01,2013-07-09 04:02:00,
2013-07-08 23:08:00,76.6,73.2,29.20,East,90,0.0,0.0,89,0.00,,---,0.21,VWS V14.01,2013-07-09 04:08:00,
2013-07-08 23:13:00,76.5,73.0,29.20,East,90,0.0,0.0,89,0.00,,---,0.21,VWS V14.01,2013-07-09 04:13:00,
2013-07-08 23:18:00,76.5,73.0,29.20,SE,135,0.0,0.0,89,0.00,,---,0.21,VWS V14.01,2013-07-09 04:18:00,
2013-07-08 23:23:00,76.3,72.8,29.20,East,90,0.0,0.0,89,0.00,,---,0.21,VWS V14.01,2013-07-09 04:23:00,
2013-07-08 23:28:00,76.3,73.1,29.20,East,90,0.0,0.0,90,0.00,,---,0.21,VWS V14.01,2013-07-09 04:28:00,
2013-07-08 23:33:00,76.3,73.1,29.20,East,90,0.0,0.0,90,0.00,,---,0.21,VWS V14.01,2013-07-09 04:33:00,
2013-07-08 23:38:00,76.3,73.1,29.20,East,90,0.0,0.0,90,0.00,,---,0.21,VWS V14.01,2013-07-09 04:38:00,
2013-07-08 23:43:00,76.1,73.0,29.20,East,90,0.0,0.0,90,0.00,,---,0.21,VWS V14.01,2013-07-09 04:43:00,
2013-07-08 23:48:00,76.1,73.0,29.20,East,90,0.0,0.0,90,0.00,,---,0.21,VWS V14.01,2013-07-09 04:48:00,
2013-07-08 23:53:00,76.1,73.0,29.20,East,90,0.0,0.0,90,0.00,,---,0.21,VWS V14.01,2013-07-09 04:53:00,
2013-07-08 23:58:00,76.1,73.0,29.20,East,90,0.0,0.0,90,0.00,,---,0.21,VWS V14.01,2013-07-09 04:58:00,